sensor_id;sensor_type;location;lat;lon;timestamp;temperature;humidity
37426;DHT22;23285;50.180;7.036;2023-02-28T00:02:40;1.10;99.90
37426;DHT22;23285;50.180;7.036;2023-02-28T00:05:27;1.30;99.90
37426;DHT22;23285;50.180;7.036;2023-02-28T00:08:14;1.30;99.90
37426;DHT22;23285;50.180;7.036;2023-02-28T00:11:01;1.00;99.90
37426;DHT22;23285;50.180;7.036;2023-02-28T00:13:48;1.30;99.90
37426;DHT22;23285;50.180;7.036;2023-02-28T00:16:35;0.90;99.90
37426;DHT22;23285;50.180;7.036;2023-02-28T00:19:22;0.90;99.90
37426;DHT22;23285;50.180;7.036;2023-02-28T00:22:09;0.80;99.90
37426;DHT22;23285;50.180;7.036;2023-02-28T00:24:55;0.80;99.90
37426;DHT22;23285;50.180;7.036;2023-02-28T00:27:42;0.90;99.90
37426;DHT22;23285;50.180;7.036;2023-02-28T00:30:28;1.00;99.90
37426;DHT22;23285;50.180;7.036;2023-02-28T00:33:15;1.00;99.90
37426;DHT22;23285;50.180;7.036;2023-02-28T00:36:04;0.90;99.90
37426;DHT22;23285;50.180;7.036;2023-02-28T00:38:51;0.80;99.90
37426;DHT22;23285;50.180;7.036;2023-02-28T00:44:26;0.80;99.90
37426;DHT22;23285;50.180;7.036;2023-02-28T00:49:59;0.60;99.90
37426;DHT22;23285;50.180;7.036;2023-02-28T00:52:48;0.70;99.90
37426;DHT22;23285;50.180;7.036;2023-02-28T00:55:35;0.60;99.90
37426;DHT22;23285;50.180;7.036;2023-02-28T00:58:21;0.70;99.90
37426;DHT22;23285;50.180;7.036;2023-02-28T01:03:56;0.60;99.90
37426;DHT22;23285;50.180;7.036;2023-02-28T01:09:31;0.90;99.90
37426;DHT22;23285;50.180;7.036;2023-02-28T01:12:17;1.00;99.90
37426;DHT22;23285;50.180;7.036;2023-02-28T01:15:06;0.40;99.90
37426;DHT22;23285;50.180;7.036;2023-02-28T01:17:53;0.40;99.90
37426;DHT22;23285;50.180;7.036;2023-02-28T01:20:41;0.40;99.90
37426;DHT22;23285;50.180;7.036;2023-02-28T01:23:28;0.20;99.90
37426;DHT22;23285;50.180;7.036;2023-02-28T01:26:19;0.50;99.90
37426;DHT22;23285;50.180;7.036;2023-02-28T01:29:06;0.60;99.90
37426;DHT22;23285;50.180;7.036;2023-02-28T01:34:39;0.70;99.90
37426;DHT22;23285;50.180;7.036;2023-02-28T01:37:26;0.60;99.90
37426;DHT22;23285;50.180;7.036;2023-02-28T01:40:13;0.40;99.90
37426;DHT22;23285;50.180;7.036;2023-02-28T01:43:01;0.20;99.90
37426;DHT22;23285;50.180;7.036;2023-02-28T01:45:48;0.30;99.90
37426;DHT22;23285;50.180;7.036;2023-02-28T01:48:38;0.50;99.90
37426;DHT22;23285;50.180;7.036;2023-02-28T01:51:28;0.40;99.90
37426;DHT22;23285;50.180;7.036;2023-02-28T01:54:18;0.60;99.90
37426;DHT22;23285;50.180;7.036;2023-02-28T01:59:58;0.40;99.90
37426;DHT22;23285;50.180;7.036;2023-02-28T02:02:47;0.30;99.90
37426;DHT22;23285;50.180;7.036;2023-02-28T02:05:37;0.30;99.90
37426;DHT22;23285;50.180;7.036;2023-02-28T02:11:14;0.40;99.90
37426;DHT22;23285;50.180;7.036;2023-02-28T02:20:29;0.20;99.90
37426;DHT22;23285;50.180;7.036;2023-02-28T02:27:14;0.00;99.90
37426;DHT22;23285;50.180;7.036;2023-02-28T02:30:41;0.00;99.90
37426;DHT22;23285;50.180;7.036;2023-02-28T02:36:51;-0.40;99.90
37426;DHT22;23285;50.180;7.036;2023-02-28T02:39:47;-0.20;99.90
37426;DHT22;23285;50.180;7.036;2023-02-28T02:42:39;-0.40;99.90
37426;DHT22;23285;50.180;7.036;2023-02-28T02:45:32;-0.40;99.90
37426;DHT22;23285;50.180;7.036;2023-02-28T02:48:24;-0.20;99.90
37426;DHT22;23285;50.180;7.036;2023-02-28T02:51:14;0.00;99.90
37426;DHT22;23285;50.180;7.036;2023-02-28T02:54:06;0.10;99.90
37426;DHT22;23285;50.180;7.036;2023-02-28T02:56:58;0.20;99.90
37426;DHT22;23285;50.180;7.036;2023-02-28T02:59:47;0.40;99.90
37426;DHT22;23285;50.180;7.036;2023-02-28T03:05:26;0.10;99.90
37426;DHT22;23285;50.180;7.036;2023-02-28T03:08:14;0.30;99.90
37426;DHT22;23285;50.180;7.036;2023-02-28T03:11:03;0.20;99.90
37426;DHT22;23285;50.180;7.036;2023-02-28T03:16:58;0.10;99.90
37426;DHT22;23285;50.180;7.036;2023-02-28T03:19:52;0.20;99.90
37426;DHT22;23285;50.180;7.036;2023-02-28T03:22:51;-0.10;99.90
37426;DHT22;23285;50.180;7.036;2023-02-28T03:25:47;-0.30;99.90
37426;DHT22;23285;50.180;7.036;2023-02-28T03:28:41;-0.20;99.90
37426;DHT22;23285;50.180;7.036;2023-02-28T03:34:24;-0.60;99.90
37426;DHT22;23285;50.180;7.036;2023-02-28T03:37:15;-0.30;99.90
37426;DHT22;23285;50.180;7.036;2023-02-28T03:40:04;-0.40;99.90
37426;DHT22;23285;50.180;7.036;2023-02-28T03:45:45;-0.20;99.90
37426;DHT22;23285;50.180;7.036;2023-02-28T03:51:23;-0.20;99.90
37426;DHT22;23285;50.180;7.036;2023-02-28T03:54:13;-0.30;99.90
37426;DHT22;23285;50.180;7.036;2023-02-28T03:57:07;-0.10;99.90
37426;DHT22;23285;50.180;7.036;2023-02-28T04:05:47;-0.20;99.90
37426;DHT22;23285;50.180;7.036;2023-02-28T04:11:24;-0.50;99.90
37426;DHT22;23285;50.180;7.036;2023-02-28T04:14:13;-0.40;99.90
37426;DHT22;23285;50.180;7.036;2023-02-28T04:16:59;0.10;99.90
37426;DHT22;23285;50.180;7.036;2023-02-28T04:22:34;-0.40;99.90
37426;DHT22;23285;50.180;7.036;2023-02-28T04:25:20;-0.60;99.90
37426;DHT22;23285;50.180;7.036;2023-02-28T04:30:55;-0.50;99.90
37426;DHT22;23285;50.180;7.036;2023-02-28T04:33:42;-0.70;99.90
37426;DHT22;23285;50.180;7.036;2023-02-28T04:36:29;-0.70;99.90
37426;DHT22;23285;50.180;7.036;2023-02-28T04:39:16;-0.80;99.90
37426;DHT22;23285;50.180;7.036;2023-02-28T04:42:03;-0.70;99.90
37426;DHT22;23285;50.180;7.036;2023-02-28T04:44:49;-0.90;99.90
37426;DHT22;23285;50.180;7.036;2023-02-28T04:47:36;-1.10;99.90
37426;DHT22;23285;50.180;7.036;2023-02-28T04:50:22;-0.70;99.90
37426;DHT22;23285;50.180;7.036;2023-02-28T04:55:57;-0.80;99.90
37426;DHT22;23285;50.180;7.036;2023-02-28T04:58:44;-1.00;99.90
37426;DHT22;23285;50.180;7.036;2023-02-28T05:01:32;-1.10;99.90
37426;DHT22;23285;50.180;7.036;2023-02-28T05:04:18;-1.10;99.90
37426;DHT22;23285;50.180;7.036;2023-02-28T05:09:52;-1.20;99.90
37426;DHT22;23285;50.180;7.036;2023-02-28T05:12:38;-1.00;99.90
37426;DHT22;23285;50.180;7.036;2023-02-28T05:15:25;-1.20;99.90
37426;DHT22;23285;50.180;7.036;2023-02-28T05:18:11;-1.20;99.90
37426;DHT22;23285;50.180;7.036;2023-02-28T05:26:36;-1.30;99.90
37426;DHT22;23285;50.180;7.036;2023-02-28T05:29:23;-1.30;99.90
37426;DHT22;23285;50.180;7.036;2023-02-28T05:32:10;-1.50;99.90
37426;DHT22;23285;50.180;7.036;2023-02-28T05:34:57;-1.10;99.90
37426;DHT22;23285;50.180;7.036;2023-02-28T05:37:43;-0.60;99.90
37426;DHT22;23285;50.180;7.036;2023-02-28T05:46:05;-0.90;99.90
37426;DHT22;23285;50.180;7.036;2023-02-28T05:48:51;-1.40;99.90
37426;DHT22;23285;50.180;7.036;2023-02-28T05:54:24;-1.10;99.90
37426;DHT22;23285;50.180;7.036;2023-02-28T05:57:11;-0.90;99.90
37426;DHT22;23285;50.180;7.036;2023-02-28T05:59:58;-0.90;99.90
37426;DHT22;23285;50.180;7.036;2023-02-28T06:02:44;-1.20;99.90
37426;DHT22;23285;50.180;7.036;2023-02-28T06:08:17;-1.00;99.90
37426;DHT22;23285;50.180;7.036;2023-02-28T06:11:04;-1.00;99.90
37426;DHT22;23285;50.180;7.036;2023-02-28T06:13:53;-1.10;99.90
37426;DHT22;23285;50.180;7.036;2023-02-28T06:16:42;-1.20;99.90
37426;DHT22;23285;50.180;7.036;2023-02-28T06:22:15;-1.10;99.90
37426;DHT22;23285;50.180;7.036;2023-02-28T06:25:01;-1.50;99.90
37426;DHT22;23285;50.180;7.036;2023-02-28T06:30:34;-1.40;99.90
37426;DHT22;23285;50.180;7.036;2023-02-28T06:36:09;-1.50;99.90
37426;DHT22;23285;50.180;7.036;2023-02-28T06:38:56;-1.50;99.90
37426;DHT22;23285;50.180;7.036;2023-02-28T06:41:43;-1.50;99.90
37426;DHT22;23285;50.180;7.036;2023-02-28T06:47:20;-1.50;99.90
37426;DHT22;23285;50.180;7.036;2023-02-28T06:52:55;-1.40;99.90
37426;DHT22;23285;50.180;7.036;2023-02-28T06:55:42;-1.40;99.90
37426;DHT22;23285;50.180;7.036;2023-02-28T06:58:28;-1.10;99.90
37426;DHT22;23285;50.180;7.036;2023-02-28T07:04:02;-1.30;99.90
37426;DHT22;23285;50.180;7.036;2023-02-28T07:09:36;-1.10;99.90
37426;DHT22;23285;50.180;7.036;2023-02-28T07:12:22;-1.10;99.90
37426;DHT22;23285;50.180;7.036;2023-02-28T07:17:56;-1.10;99.90
37426;DHT22;23285;50.180;7.036;2023-02-28T07:20:42;-0.70;99.90
37426;DHT22;23285;50.180;7.036;2023-02-28T07:23:30;-0.60;99.90
37426;DHT22;23285;50.180;7.036;2023-02-28T07:26:18;-0.50;99.90
37426;DHT22;23285;50.180;7.036;2023-02-28T07:29:05;-0.40;99.90
37426;DHT22;23285;50.180;7.036;2023-02-28T07:31:52;-0.40;99.90
37426;DHT22;23285;50.180;7.036;2023-02-28T07:34:38;-0.60;99.90
37426;DHT22;23285;50.180;7.036;2023-02-28T07:37:24;-0.60;99.90
37426;DHT22;23285;50.180;7.036;2023-02-28T07:40:13;-0.60;99.90
37426;DHT22;23285;50.180;7.036;2023-02-28T07:42:59;-0.60;99.90
37426;DHT22;23285;50.180;7.036;2023-02-28T07:45:46;-0.60;99.90
37426;DHT22;23285;50.180;7.036;2023-02-28T07:48:33;-0.40;99.90
37426;DHT22;23285;50.180;7.036;2023-02-28T07:51:19;-0.20;99.90
37426;DHT22;23285;50.180;7.036;2023-02-28T07:54:05;-0.60;99.90
37426;DHT22;23285;50.180;7.036;2023-02-28T07:56:54;-0.30;99.90
37426;DHT22;23285;50.180;7.036;2023-02-28T08:02:26;-0.40;99.90
37426;DHT22;23285;50.180;7.036;2023-02-28T08:07:59;-0.10;99.90
37426;DHT22;23285;50.180;7.036;2023-02-28T08:13:33;-0.30;99.90
37426;DHT22;23285;50.180;7.036;2023-02-28T08:16:19;-0.70;99.90
37426;DHT22;23285;50.180;7.036;2023-02-28T08:19:07;-0.60;99.90
37426;DHT22;23285;50.180;7.036;2023-02-28T08:27:28;-0.60;99.90
37426;DHT22;23285;50.180;7.036;2023-02-28T08:30:17;-0.70;99.90
37426;DHT22;23285;50.180;7.036;2023-02-28T08:33:03;-0.90;99.90
37426;DHT22;23285;50.180;7.036;2023-02-28T08:35:52;-0.70;99.90
37426;DHT22;23285;50.180;7.036;2023-02-28T08:38:39;-0.70;99.90
37426;DHT22;23285;50.180;7.036;2023-02-28T08:41:26;-0.50;99.90
37426;DHT22;23285;50.180;7.036;2023-02-28T08:44:13;-0.30;99.90
37426;DHT22;23285;50.180;7.036;2023-02-28T08:47:00;-0.20;99.90
37426;DHT22;23285;50.180;7.036;2023-02-28T08:49:47;-0.30;99.90
37426;DHT22;23285;50.180;7.036;2023-02-28T08:52:33;-0.40;99.90
37426;DHT22;23285;50.180;7.036;2023-02-28T09:00:53;0.00;99.90
37426;DHT22;23285;50.180;7.036;2023-02-28T09:03:41;0.30;99.90
37426;DHT22;23285;50.180;7.036;2023-02-28T09:06:28;0.30;99.90
37426;DHT22;23285;50.180;7.036;2023-02-28T09:09:15;0.20;99.90
37426;DHT22;23285;50.180;7.036;2023-02-28T09:12:01;0.60;99.90
37426;DHT22;23285;50.180;7.036;2023-02-28T09:14:47;0.80;99.90
37426;DHT22;23285;50.180;7.036;2023-02-28T09:17:34;0.70;99.90
37426;DHT22;23285;50.180;7.036;2023-02-28T09:20:21;0.60;99.90
37426;DHT22;23285;50.180;7.036;2023-02-28T09:23:09;0.50;99.90
37426;DHT22;23285;50.180;7.036;2023-02-28T09:25:55;0.70;99.90
37426;DHT22;23285;50.180;7.036;2023-02-28T09:28:41;0.90;99.90
37426;DHT22;23285;50.180;7.036;2023-02-28T09:31:28;0.60;99.90
37426;DHT22;23285;50.180;7.036;2023-02-28T09:34:15;0.70;99.90
37426;DHT22;23285;50.180;7.036;2023-02-28T09:37:03;0.40;99.90
37426;DHT22;23285;50.180;7.036;2023-02-28T09:39:50;0.50;99.90
37426;DHT22;23285;50.180;7.036;2023-02-28T09:45:24;0.20;99.90
37426;DHT22;23285;50.180;7.036;2023-02-28T09:53:51;0.20;99.90
37426;DHT22;23285;50.180;7.036;2023-02-28T09:56:40;0.40;99.90
37426;DHT22;23285;50.180;7.036;2023-02-28T10:02:41;0.50;99.90
37426;DHT22;23285;50.180;7.036;2023-02-28T10:05:35;0.90;99.90
37426;DHT22;23285;50.180;7.036;2023-02-28T10:08:26;0.90;99.90
37426;DHT22;23285;50.180;7.036;2023-02-28T10:11:17;1.30;99.90
37426;DHT22;23285;50.180;7.036;2023-02-28T10:14:11;1.20;99.90
37426;DHT22;23285;50.180;7.036;2023-02-28T10:17:02;1.30;99.90
37426;DHT22;23285;50.180;7.036;2023-02-28T10:22:50;2.20;99.90
37426;DHT22;23285;50.180;7.036;2023-02-28T10:25:38;2.30;99.90
37426;DHT22;23285;50.180;7.036;2023-02-28T10:28:26;2.10;99.90
37426;DHT22;23285;50.180;7.036;2023-02-28T10:31:18;2.00;99.90
37426;DHT22;23285;50.180;7.036;2023-02-28T10:34:04;1.80;99.90
37426;DHT22;23285;50.180;7.036;2023-02-28T10:36:51;1.80;99.90
37426;DHT22;23285;50.180;7.036;2023-02-28T10:39:40;1.80;99.90
37426;DHT22;23285;50.180;7.036;2023-02-28T10:50:52;1.70;99.90
37426;DHT22;23285;50.180;7.036;2023-02-28T10:56:35;1.60;99.90
37426;DHT22;23285;50.180;7.036;2023-02-28T10:59:27;1.40;99.90
37426;DHT22;23285;50.180;7.036;2023-02-28T11:05:29;1.80;99.90
37426;DHT22;23285;50.180;7.036;2023-02-28T11:08:17;2.10;99.90
37426;DHT22;23285;50.180;7.036;2023-02-28T11:11:05;1.70;99.90
37426;DHT22;23285;50.180;7.036;2023-02-28T11:16:39;2.30;99.90
37426;DHT22;23285;50.180;7.036;2023-02-28T11:22:18;2.40;99.90
37426;DHT22;23285;50.180;7.036;2023-02-28T11:25:09;2.70;99.90
37426;DHT22;23285;50.180;7.036;2023-02-28T11:27:57;3.00;99.90
37426;DHT22;23285;50.180;7.036;2023-02-28T11:30:49;2.80;99.90
37426;DHT22;23285;50.180;7.036;2023-02-28T11:33:47;2.60;99.90
37426;DHT22;23285;50.180;7.036;2023-02-28T11:36:37;2.40;99.90
37426;DHT22;23285;50.180;7.036;2023-02-28T11:42:41;2.10;99.90
37426;DHT22;23285;50.180;7.036;2023-02-28T11:45:44;2.10;99.90
37426;DHT22;23285;50.180;7.036;2023-02-28T11:48:36;2.40;99.90
37426;DHT22;23285;50.180;7.036;2023-02-28T11:51:29;2.70;99.90
37426;DHT22;23285;50.180;7.036;2023-02-28T11:54:31;2.70;99.90
37426;DHT22;23285;50.180;7.036;2023-02-28T11:57:35;3.20;99.90
37426;DHT22;23285;50.180;7.036;2023-02-28T12:03:27;3.00;99.90
37426;DHT22;23285;50.180;7.036;2023-02-28T12:06:23;2.80;99.90
37426;DHT22;23285;50.180;7.036;2023-02-28T12:09:39;3.00;99.90
37426;DHT22;23285;50.180;7.036;2023-02-28T12:18:42;2.60;99.90
37426;DHT22;23285;50.180;7.036;2023-02-28T12:21:42;3.10;99.90
37426;DHT22;23285;50.180;7.036;2023-02-28T12:24:55;2.80;99.90
37426;DHT22;23285;50.180;7.036;2023-02-28T12:27:49;3.30;99.80
37426;DHT22;23285;50.180;7.036;2023-02-28T12:30:50;3.30;99.40
37426;DHT22;23285;50.180;7.036;2023-02-28T12:33:42;3.60;99.10
37426;DHT22;23285;50.180;7.036;2023-02-28T12:36:29;3.70;98.60
37426;DHT22;23285;50.180;7.036;2023-02-28T12:39:18;3.80;98.10
37426;DHT22;23285;50.180;7.036;2023-02-28T12:45:00;4.10;99.10
37426;DHT22;23285;50.180;7.036;2023-02-28T12:47:54;4.00;97.90
37426;DHT22;23285;50.180;7.036;2023-02-28T12:59:23;3.70;97.10
37426;DHT22;23285;50.180;7.036;2023-02-28T13:14:38;4.70;97.30
37426;DHT22;23285;50.180;7.036;2023-02-28T13:17:24;5.20;96.30
37426;DHT22;23285;50.180;7.036;2023-02-28T13:20:17;5.10;96.30
37426;DHT22;23285;50.180;7.036;2023-02-28T13:23:41;5.00;97.20
37426;DHT22;23285;50.180;7.036;2023-02-28T13:27:11;4.70;96.90
37426;DHT22;23285;50.180;7.036;2023-02-28T13:30:00;4.50;96.60
37426;DHT22;23285;50.180;7.036;2023-02-28T13:33:26;4.50;96.70
37426;DHT22;23285;50.180;7.036;2023-02-28T13:36:26;5.50;96.90
37426;DHT22;23285;50.180;7.036;2023-02-28T13:39:45;5.60;95.50
37426;DHT22;23285;50.180;7.036;2023-02-28T13:42:36;5.80;95.50
37426;DHT22;23285;50.180;7.036;2023-02-28T13:45:26;5.80;95.20
37426;DHT22;23285;50.180;7.036;2023-02-28T13:48:19;5.70;96.00
37426;DHT22;23285;50.180;7.036;2023-02-28T13:51:37;5.70;95.00
37426;DHT22;23285;50.180;7.036;2023-02-28T13:54:37;5.40;95.90
37426;DHT22;23285;50.180;7.036;2023-02-28T13:57:39;5.70;95.70
37426;DHT22;23285;50.180;7.036;2023-02-28T14:00:39;5.90;94.80
37426;DHT22;23285;50.180;7.036;2023-02-28T14:06:49;5.70;94.20
37426;DHT22;23285;50.180;7.036;2023-02-28T14:12:55;5.70;94.10
37426;DHT22;23285;50.180;7.036;2023-02-28T14:18:47;5.70;94.30
37426;DHT22;23285;50.180;7.036;2023-02-28T14:21:36;5.90;93.60
37426;DHT22;23285;50.180;7.036;2023-02-28T14:24:59;6.30;92.90
37426;DHT22;23285;50.180;7.036;2023-02-28T14:27:55;6.30;92.80
37426;DHT22;23285;50.180;7.036;2023-02-28T14:31:01;5.90;93.40
37426;DHT22;23285;50.180;7.036;2023-02-28T14:36:52;6.50;93.30
37426;DHT22;23285;50.180;7.036;2023-02-28T14:42:30;6.40;92.80
37426;DHT22;23285;50.180;7.036;2023-02-28T14:45:19;6.00;92.10
37426;DHT22;23285;50.180;7.036;2023-02-28T14:50:58;6.30;93.30
37426;DHT22;23285;50.180;7.036;2023-02-28T14:53:48;6.30;92.50
37426;DHT22;23285;50.180;7.036;2023-02-28T14:56:37;6.20;92.10
37426;DHT22;23285;50.180;7.036;2023-02-28T15:05:26;5.90;93.50
37426;DHT22;23285;50.180;7.036;2023-02-28T15:08:15;6.50;92.20
37426;DHT22;23285;50.180;7.036;2023-02-28T15:11:03;6.60;92.10
37426;DHT22;23285;50.180;7.036;2023-02-28T15:13:52;6.90;92.60
37426;DHT22;23285;50.180;7.036;2023-02-28T15:16:41;6.90;91.90
37426;DHT22;23285;50.180;7.036;2023-02-28T15:22:24;6.60;92.20
37426;DHT22;23285;50.180;7.036;2023-02-28T15:30:56;6.80;92.20
37426;DHT22;23285;50.180;7.036;2023-02-28T15:36:39;6.80;92.60
37426;DHT22;23285;50.180;7.036;2023-02-28T15:42:18;7.50;91.40
37426;DHT22;23285;50.180;7.036;2023-02-28T15:45:25;7.50;91.40
37426;DHT22;23285;50.180;7.036;2023-02-28T15:48:18;6.90;91.80
37426;DHT22;23285;50.180;7.036;2023-02-28T15:53:57;7.80;91.40
37426;DHT22;23285;50.180;7.036;2023-02-28T15:56:46;7.80;90.70
37426;DHT22;23285;50.180;7.036;2023-02-28T15:59:36;7.10;90.90
37426;DHT22;23285;50.180;7.036;2023-02-28T16:02:30;6.90;91.10
37426;DHT22;23285;50.180;7.036;2023-02-28T16:08:14;6.90;92.10
37426;DHT22;23285;50.180;7.036;2023-02-28T16:11:00;7.40;91.40
37426;DHT22;23285;50.180;7.036;2023-02-28T16:13:48;7.50;90.90
37426;DHT22;23285;50.180;7.036;2023-02-28T16:16:42;7.70;90.80
37426;DHT22;23285;50.180;7.036;2023-02-28T16:19:29;7.40;91.20
37426;DHT22;23285;50.180;7.036;2023-02-28T16:30:39;7.20;91.40
37426;DHT22;23285;50.180;7.036;2023-02-28T16:33:25;6.80;91.00
37426;DHT22;23285;50.180;7.036;2023-02-28T16:36:15;7.10;91.20
37426;DHT22;23285;50.180;7.036;2023-02-28T16:39:01;6.70;91.80
37426;DHT22;23285;50.180;7.036;2023-02-28T16:41:49;6.70;91.50
37426;DHT22;23285;50.180;7.036;2023-02-28T16:44:35;6.20;91.70
37426;DHT22;23285;50.180;7.036;2023-02-28T16:47:23;5.90;92.00
37426;DHT22;23285;50.180;7.036;2023-02-28T16:50:16;5.60;92.20
37426;DHT22;23285;50.180;7.036;2023-02-28T16:53:03;5.40;92.60
37426;DHT22;23285;50.180;7.036;2023-02-28T16:55:49;5.30;92.60
37426;DHT22;23285;50.180;7.036;2023-02-28T16:58:36;5.10;92.30
37426;DHT22;23285;50.180;7.036;2023-02-28T17:01:23;5.10;92.40
37426;DHT22;23285;50.180;7.036;2023-02-28T17:04:11;4.60;92.90
37426;DHT22;23285;50.180;7.036;2023-02-28T17:06:58;4.80;93.10
37426;DHT22;23285;50.180;7.036;2023-02-28T17:09:45;4.70;93.50
37426;DHT22;23285;50.180;7.036;2023-02-28T17:18:05;3.90;95.80
37426;DHT22;23285;50.180;7.036;2023-02-28T17:20:54;3.90;95.20
37426;DHT22;23285;50.180;7.036;2023-02-28T17:26:27;3.70;96.50
37426;DHT22;23285;50.180;7.036;2023-02-28T17:29:16;4.20;95.30
37426;DHT22;23285;50.180;7.036;2023-02-28T17:32:03;4.10;95.70
37426;DHT22;23285;50.180;7.036;2023-02-28T17:34:50;3.50;96.00
37426;DHT22;23285;50.180;7.036;2023-02-28T17:37:37;3.60;96.00
37426;DHT22;23285;50.180;7.036;2023-02-28T17:40:24;3.60;95.80
37426;DHT22;23285;50.180;7.036;2023-02-28T17:43:10;3.70;96.00
37426;DHT22;23285;50.180;7.036;2023-02-28T17:48:43;3.50;97.30
37426;DHT22;23285;50.180;7.036;2023-02-28T17:51:30;3.90;95.90
37426;DHT22;23285;50.180;7.036;2023-02-28T17:54:18;4.00;95.60
37426;DHT22;23285;50.180;7.036;2023-02-28T17:57:04;3.60;96.00
37426;DHT22;23285;50.180;7.036;2023-02-28T18:05:24;2.90;98.20
37426;DHT22;23285;50.180;7.036;2023-02-28T18:08:11;2.80;97.60
37426;DHT22;23285;50.180;7.036;2023-02-28T18:10:59;2.90;98.10
37426;DHT22;23285;50.180;7.036;2023-02-28T18:13:46;3.10;97.40
37426;DHT22;23285;50.180;7.036;2023-02-28T18:16:33;2.90;97.60
37426;DHT22;23285;50.180;7.036;2023-02-28T18:22:07;2.70;98.70
37426;DHT22;23285;50.180;7.036;2023-02-28T18:24:53;3.00;97.70
37426;DHT22;23285;50.180;7.036;2023-02-28T18:27:41;3.30;97.10
37426;DHT22;23285;50.180;7.036;2023-02-28T18:30:37;2.90;97.50
37426;DHT22;23285;50.180;7.036;2023-02-28T18:41:43;2.30;98.90
37426;DHT22;23285;50.180;7.036;2023-02-28T18:47:18;2.30;98.80
37426;DHT22;23285;50.180;7.036;2023-02-28T18:50:05;2.30;98.60
37426;DHT22;23285;50.180;7.036;2023-02-28T18:55:38;2.20;99.30
37426;DHT22;23285;50.180;7.036;2023-02-28T18:58:24;2.50;98.40
37426;DHT22;23285;50.180;7.036;2023-02-28T19:04:03;2.50;99.00
37426;DHT22;23285;50.180;7.036;2023-02-28T19:06:50;2.80;98.60
37426;DHT22;23285;50.180;7.036;2023-02-28T19:09:36;2.30;98.30
37426;DHT22;23285;50.180;7.036;2023-02-28T19:20:45;2.50;98.70
37426;DHT22;23285;50.180;7.036;2023-02-28T19:23:32;2.70;97.60
37426;DHT22;23285;50.180;7.036;2023-02-28T19:26:20;2.50;98.60
37426;DHT22;23285;50.180;7.036;2023-02-28T19:29:06;2.50;98.70
37426;DHT22;23285;50.180;7.036;2023-02-28T19:31:52;2.20;98.60
37426;DHT22;23285;50.180;7.036;2023-02-28T19:34:40;2.40;98.20
37426;DHT22;23285;50.180;7.036;2023-02-28T19:37:26;2.70;97.80
37426;DHT22;23285;50.180;7.036;2023-02-28T19:40:13;2.50;97.90
37426;DHT22;23285;50.180;7.036;2023-02-28T19:42:59;2.30;98.30
37426;DHT22;23285;50.180;7.036;2023-02-28T19:45:45;2.10;98.70
37426;DHT22;23285;50.180;7.036;2023-02-28T19:48:33;2.10;98.60
37426;DHT22;23285;50.180;7.036;2023-02-28T19:51:20;2.10;98.50
37426;DHT22;23285;50.180;7.036;2023-02-28T19:54:07;2.00;99.40
37426;DHT22;23285;50.180;7.036;2023-02-28T19:56:54;1.90;99.00
37426;DHT22;23285;50.180;7.036;2023-02-28T19:59:41;1.80;99.20
37426;DHT22;23285;50.180;7.036;2023-02-28T20:05:14;2.10;99.30
37426;DHT22;23285;50.180;7.036;2023-02-28T20:08:02;2.20;98.60
37426;DHT22;23285;50.180;7.036;2023-02-28T20:13:35;2.40;98.80
37426;DHT22;23285;50.180;7.036;2023-02-28T20:16:22;2.50;98.20
37426;DHT22;23285;50.180;7.036;2023-02-28T20:21:58;2.30;99.00
37426;DHT22;23285;50.180;7.036;2023-02-28T20:24:48;2.30;98.80
37426;DHT22;23285;50.180;7.036;2023-02-28T20:27:34;2.30;98.60
37426;DHT22;23285;50.180;7.036;2023-02-28T20:30:20;2.30;98.70
37426;DHT22;23285;50.180;7.036;2023-02-28T20:35:58;2.70;98.70
37426;DHT22;23285;50.180;7.036;2023-02-28T20:41:33;1.90;99.80
37426;DHT22;23285;50.180;7.036;2023-02-28T20:44:19;1.70;99.30
37426;DHT22;23285;50.180;7.036;2023-02-28T20:47:05;1.60;99.70
37426;DHT22;23285;50.180;7.036;2023-02-28T20:49:52;1.70;99.40
37426;DHT22;23285;50.180;7.036;2023-02-28T20:52:38;1.70;99.50
37426;DHT22;23285;50.180;7.036;2023-02-28T20:58:13;1.40;99.90
37426;DHT22;23285;50.180;7.036;2023-02-28T21:01:00;1.70;99.90
37426;DHT22;23285;50.180;7.036;2023-02-28T21:03:48;1.90;99.90
37426;DHT22;23285;50.180;7.036;2023-02-28T21:06:36;2.30;99.40
37426;DHT22;23285;50.180;7.036;2023-02-28T21:09:22;2.00;99.70
37426;DHT22;23285;50.180;7.036;2023-02-28T21:12:09;2.00;99.50
37426;DHT22;23285;50.180;7.036;2023-02-28T21:17:43;1.90;99.90
37426;DHT22;23285;50.180;7.036;2023-02-28T21:20:32;1.70;99.50
37426;DHT22;23285;50.180;7.036;2023-02-28T21:26:06;1.50;99.90
37426;DHT22;23285;50.180;7.036;2023-02-28T21:28:54;1.50;99.90
37426;DHT22;23285;50.180;7.036;2023-02-28T21:34:29;1.60;99.90
37426;DHT22;23285;50.180;7.036;2023-02-28T21:37:15;1.40;99.90
37426;DHT22;23285;50.180;7.036;2023-02-28T21:40:01;1.80;99.80
37426;DHT22;23285;50.180;7.036;2023-02-28T21:42:48;1.70;99.90
37426;DHT22;23285;50.180;7.036;2023-02-28T21:45:34;1.40;99.90
37426;DHT22;23285;50.180;7.036;2023-02-28T21:48:22;1.20;99.90
37426;DHT22;23285;50.180;7.036;2023-02-28T21:51:11;1.30;99.90
37426;DHT22;23285;50.180;7.036;2023-02-28T21:53:59;1.70;99.90
37426;DHT22;23285;50.180;7.036;2023-02-28T21:56:46;1.30;99.90
37426;DHT22;23285;50.180;7.036;2023-02-28T21:59:34;1.50;99.90
37426;DHT22;23285;50.180;7.036;2023-02-28T22:02:21;1.80;99.70
37426;DHT22;23285;50.180;7.036;2023-02-28T22:05:08;1.40;99.90
37426;DHT22;23285;50.180;7.036;2023-02-28T22:07:55;1.20;99.90
37426;DHT22;23285;50.180;7.036;2023-02-28T22:13:27;1.40;99.90
37426;DHT22;23285;50.180;7.036;2023-02-28T22:19:01;1.10;99.90
37426;DHT22;23285;50.180;7.036;2023-02-28T22:21:52;1.00;99.90
37426;DHT22;23285;50.180;7.036;2023-02-28T22:24:39;1.00;99.90
37426;DHT22;23285;50.180;7.036;2023-02-28T22:32:58;0.60;99.90
37426;DHT22;23285;50.180;7.036;2023-02-28T22:35:45;0.40;99.90
37426;DHT22;23285;50.180;7.036;2023-02-28T22:38:32;0.90;99.90
37426;DHT22;23285;50.180;7.036;2023-02-28T22:41:20;0.80;99.90
37426;DHT22;23285;50.180;7.036;2023-02-28T22:44:07;0.70;99.90
37426;DHT22;23285;50.180;7.036;2023-02-28T22:46:54;0.70;99.90
37426;DHT22;23285;50.180;7.036;2023-02-28T22:52:26;0.70;99.90
37426;DHT22;23285;50.180;7.036;2023-02-28T22:55:14;0.40;99.90
37426;DHT22;23285;50.180;7.036;2023-02-28T22:58:00;0.50;99.90
37426;DHT22;23285;50.180;7.036;2023-02-28T23:00:47;0.50;99.90
37426;DHT22;23285;50.180;7.036;2023-02-28T23:03:34;0.50;99.90
37426;DHT22;23285;50.180;7.036;2023-02-28T23:06:21;0.50;99.90
37426;DHT22;23285;50.180;7.036;2023-02-28T23:14:49;0.40;99.90
37426;DHT22;23285;50.180;7.036;2023-02-28T23:20:22;0.60;99.90
37426;DHT22;23285;50.180;7.036;2023-02-28T23:23:09;0.70;99.90
37426;DHT22;23285;50.180;7.036;2023-02-28T23:25:56;0.50;99.90
37426;DHT22;23285;50.180;7.036;2023-02-28T23:28:44;0.30;99.90
37426;DHT22;23285;50.180;7.036;2023-02-28T23:31:31;0.20;99.90
37426;DHT22;23285;50.180;7.036;2023-02-28T23:34:18;0.30;99.90
37426;DHT22;23285;50.180;7.036;2023-02-28T23:37:10;0.50;99.90
37426;DHT22;23285;50.180;7.036;2023-02-28T23:39:56;0.50;99.90
37426;DHT22;23285;50.180;7.036;2023-02-28T23:42:42;0.10;99.90
37426;DHT22;23285;50.180;7.036;2023-02-28T23:51:05;0.10;99.90